sensor_id;sensor_type;location;lat;lon;timestamp;P1;durP1;ratioP1;P2;durP2;ratioP2
15104;SDS011;7653;48.994;9.212;2023-07-02T00:00:29;5.30;;;3.50;;
15104;SDS011;7653;48.994;9.212;2023-07-02T00:02:55;3.97;;;3.37;;
15104;SDS011;7653;48.994;9.212;2023-07-02T00:05:20;4.20;;;3.80;;
15104;SDS011;7653;48.994;9.212;2023-07-02T00:07:46;4.50;;;4.10;;
15104;SDS011;7653;48.994;9.212;2023-07-02T00:10:12;4.77;;;4.37;;
15104;SDS011;7653;48.994;9.212;2023-07-02T00:12:37;5.53;;;3.90;;
15104;SDS011;7653;48.994;9.212;2023-07-02T00:15:03;4.07;;;3.70;;
15104;SDS011;7653;48.994;9.212;2023-07-02T00:17:29;4.67;;;4.27;;
15104;SDS011;7653;48.994;9.212;2023-07-02T00:19:55;5.07;;;3.90;;
15104;SDS011;7653;48.994;9.212;2023-07-02T00:22:21;4.73;;;3.67;;
15104;SDS011;7653;48.994;9.212;2023-07-02T00:24:46;5.23;;;3.90;;
15104;SDS011;7653;48.994;9.212;2023-07-02T00:27:12;4.20;;;3.77;;
15104;SDS011;7653;48.994;9.212;2023-07-02T00:29:38;5.10;;;4.37;;
15104;SDS011;7653;48.994;9.212;2023-07-02T00:32:04;4.10;;;3.70;;
15104;SDS011;7653;48.994;9.212;2023-07-02T00:34:30;4.20;;;3.60;;
15104;SDS011;7653;48.994;9.212;2023-07-02T00:36:56;4.83;;;3.63;;
15104;SDS011;7653;48.994;9.212;2023-07-02T00:39:21;6.47;;;3.93;;
15104;SDS011;7653;48.994;9.212;2023-07-02T00:41:47;5.60;;;4.03;;
15104;SDS011;7653;48.994;9.212;2023-07-02T00:44:13;5.10;;;3.60;;
15104;SDS011;7653;48.994;9.212;2023-07-02T00:46:39;4.37;;;3.97;;
15104;SDS011;7653;48.994;9.212;2023-07-02T00:49:05;6.57;;;3.80;;
15104;SDS011;7653;48.994;9.212;2023-07-02T00:51:33;5.93;;;3.73;;
15104;SDS011;7653;48.994;9.212;2023-07-02T00:53:58;4.30;;;3.90;;
15104;SDS011;7653;48.994;9.212;2023-07-02T00:56:25;3.87;;;3.47;;
15104;SDS011;7653;48.994;9.212;2023-07-02T00:58:52;6.43;;;3.53;;
15104;SDS011;7653;48.994;9.212;2023-07-02T01:03:51;4.07;;;3.40;;
15104;SDS011;7653;48.994;9.212;2023-07-02T01:06:26;5.13;;;3.87;;
15104;SDS011;7653;48.994;9.212;2023-07-02T01:08:54;4.20;;;3.57;;
15104;SDS011;7653;48.994;9.212;2023-07-02T01:11:21;4.37;;;3.67;;
15104;SDS011;7653;48.994;9.212;2023-07-02T01:13:53;5.10;;;3.50;;
15104;SDS011;7653;48.994;9.212;2023-07-02T01:16:23;4.70;;;3.33;;
15104;SDS011;7653;48.994;9.212;2023-07-02T01:18:49;6.17;;;3.63;;
15104;SDS011;7653;48.994;9.212;2023-07-02T01:21:19;4.87;;;3.23;;
15104;SDS011;7653;48.994;9.212;2023-07-02T01:23:46;3.57;;;3.27;;
15104;SDS011;7653;48.994;9.212;2023-07-02T01:26:12;3.93;;;3.53;;
15104;SDS011;7653;48.994;9.212;2023-07-02T01:28:38;4.20;;;3.47;;
15104;SDS011;7653;48.994;9.212;2023-07-02T01:31:04;4.67;;;3.90;;
15104;SDS011;7653;48.994;9.212;2023-07-02T01:33:30;4.83;;;3.17;;
15104;SDS011;7653;48.994;9.212;2023-07-02T01:35:56;4.17;;;3.20;;
15104;SDS011;7653;48.994;9.212;2023-07-02T01:38:22;3.90;;;3.60;;
15104;SDS011;7653;48.994;9.212;2023-07-02T01:40:48;5.33;;;3.60;;
15104;SDS011;7653;48.994;9.212;2023-07-02T01:43:13;4.77;;;3.70;;
15104;SDS011;7653;48.994;9.212;2023-07-02T01:45:41;4.50;;;3.53;;
15104;SDS011;7653;48.994;9.212;2023-07-02T01:48:06;3.80;;;3.50;;
15104;SDS011;7653;48.994;9.212;2023-07-02T01:50:32;3.83;;;3.47;;
15104;SDS011;7653;48.994;9.212;2023-07-02T01:52:58;4.60;;;3.50;;
15104;SDS011;7653;48.994;9.212;2023-07-02T01:55:24;4.47;;;3.53;;
15104;SDS011;7653;48.994;9.212;2023-07-02T01:57:50;3.77;;;3.47;;
15104;SDS011;7653;48.994;9.212;2023-07-02T02:00:16;5.53;;;4.37;;
15104;SDS011;7653;48.994;9.212;2023-07-02T02:02:42;4.83;;;3.67;;
15104;SDS011;7653;48.994;9.212;2023-07-02T02:05:08;4.63;;;3.50;;
15104;SDS011;7653;48.994;9.212;2023-07-02T02:07:35;4.30;;;3.30;;
15104;SDS011;7653;48.994;9.212;2023-07-02T02:10:01;4.10;;;3.70;;
15104;SDS011;7653;48.994;9.212;2023-07-02T02:12:27;6.77;;;3.60;;
15104;SDS011;7653;48.994;9.212;2023-07-02T02:14:53;5.03;;;3.70;;
15104;SDS011;7653;48.994;9.212;2023-07-02T02:17:19;3.80;;;3.40;;
15104;SDS011;7653;48.994;9.212;2023-07-02T02:19:44;4.20;;;3.80;;
15104;SDS011;7653;48.994;9.212;2023-07-02T02:22:10;4.27;;;3.73;;
15104;SDS011;7653;48.994;9.212;2023-07-02T02:24:36;6.93;;;3.70;;
15104;SDS011;7653;48.994;9.212;2023-07-02T02:27:02;3.83;;;3.43;;
15104;SDS011;7653;48.994;9.212;2023-07-02T02:29:28;3.80;;;3.40;;
15104;SDS011;7653;48.994;9.212;2023-07-02T02:31:53;6.03;;;3.57;;
15104;SDS011;7653;48.994;9.212;2023-07-02T02:34:19;5.07;;;3.73;;
15104;SDS011;7653;48.994;9.212;2023-07-02T02:36:45;5.17;;;3.63;;
15104;SDS011;7653;48.994;9.212;2023-07-02T02:39:11;6.27;;;3.73;;
15104;SDS011;7653;48.994;9.212;2023-07-02T02:41:37;4.33;;;3.40;;
15104;SDS011;7653;48.994;9.212;2023-07-02T02:44:03;5.87;;;3.90;;
15104;SDS011;7653;48.994;9.212;2023-07-02T02:46:28;6.07;;;3.20;;
15104;SDS011;7653;48.994;9.212;2023-07-02T02:48:54;6.17;;;3.70;;
15104;SDS011;7653;48.994;9.212;2023-07-02T02:51:20;5.00;;;3.60;;
15104;SDS011;7653;48.994;9.212;2023-07-02T02:53:46;2.43;;;1.97;;
15104;SDS011;7653;48.994;9.212;2023-07-02T02:56:11;2.63;;;2.43;;
15104;SDS011;7653;48.994;9.212;2023-07-02T02:58:41;4.43;;;2.90;;
15104;SDS011;7653;48.994;9.212;2023-07-02T03:01:09;4.67;;;3.30;;
15104;SDS011;7653;48.994;9.212;2023-07-02T03:03:39;9.90;;;4.93;;
15104;SDS011;7653;48.994;9.212;2023-07-02T03:06:10;8.70;;;4.97;;
15104;SDS011;7653;48.994;9.212;2023-07-02T03:08:40;6.00;;;4.73;;
15104;SDS011;7653;48.994;9.212;2023-07-02T03:11:06;5.80;;;4.37;;
15104;SDS011;7653;48.994;9.212;2023-07-02T03:13:31;10.70;;;5.10;;
15104;SDS011;7653;48.994;9.212;2023-07-02T03:15:57;10.53;;;4.93;;
15104;SDS011;7653;48.994;9.212;2023-07-02T03:18:23;8.70;;;5.10;;
15104;SDS011;7653;48.994;9.212;2023-07-02T03:20:49;8.50;;;4.83;;
15104;SDS011;7653;48.994;9.212;2023-07-02T03:23:15;5.17;;;4.47;;
15104;SDS011;7653;48.994;9.212;2023-07-02T03:25:40;7.80;;;5.13;;
15104;SDS011;7653;48.994;9.212;2023-07-02T03:28:06;6.73;;;4.53;;
15104;SDS011;7653;48.994;9.212;2023-07-02T03:30:35;7.47;;;4.47;;
15104;SDS011;7653;48.994;9.212;2023-07-02T03:33:03;8.90;;;4.40;;
15104;SDS011;7653;48.994;9.212;2023-07-02T03:35:29;7.03;;;4.47;;
15104;SDS011;7653;48.994;9.212;2023-07-02T03:37:54;5.83;;;3.67;;
15104;SDS011;7653;48.994;9.212;2023-07-02T03:40:22;11.20;;;4.57;;
15104;SDS011;7653;48.994;9.212;2023-07-02T03:42:48;5.87;;;4.23;;
15104;SDS011;7653;48.994;9.212;2023-07-02T03:45:13;4.33;;;3.80;;
15104;SDS011;7653;48.994;9.212;2023-07-02T03:47:39;6.40;;;4.20;;
15104;SDS011;7653;48.994;9.212;2023-07-02T03:50:05;7.23;;;4.27;;
15104;SDS011;7653;48.994;9.212;2023-07-02T03:52:31;6.53;;;3.70;;
15104;SDS011;7653;48.994;9.212;2023-07-02T03:54:56;7.53;;;5.00;;
15104;SDS011;7653;48.994;9.212;2023-07-02T03:57:22;6.90;;;4.87;;
15104;SDS011;7653;48.994;9.212;2023-07-02T03:59:48;10.60;;;5.17;;
15104;SDS011;7653;48.994;9.212;2023-07-02T04:02:13;10.13;;;5.10;;
15104;SDS011;7653;48.994;9.212;2023-07-02T04:04:39;8.10;;;5.00;;
15104;SDS011;7653;48.994;9.212;2023-07-02T04:07:05;8.57;;;5.37;;
15104;SDS011;7653;48.994;9.212;2023-07-02T04:09:30;9.90;;;5.40;;
15104;SDS011;7653;48.994;9.212;2023-07-02T04:11:57;11.90;;;6.00;;
15104;SDS011;7653;48.994;9.212;2023-07-02T04:14:24;9.63;;;5.33;;
15104;SDS011;7653;48.994;9.212;2023-07-02T04:16:50;10.53;;;5.37;;
15104;SDS011;7653;48.994;9.212;2023-07-02T04:19:15;8.77;;;5.17;;
15104;SDS011;7653;48.994;9.212;2023-07-02T04:21:41;10.20;;;6.33;;
15104;SDS011;7653;48.994;9.212;2023-07-02T04:24:07;8.63;;;5.40;;
15104;SDS011;7653;48.994;9.212;2023-07-02T04:26:32;9.17;;;5.80;;
15104;SDS011;7653;48.994;9.212;2023-07-02T04:28:58;12.90;;;5.50;;
15104;SDS011;7653;48.994;9.212;2023-07-02T04:31:24;9.83;;;5.90;;
15104;SDS011;7653;48.994;9.212;2023-07-02T04:33:50;95.47;;;9.53;;
15104;SDS011;7653;48.994;9.212;2023-07-02T04:36:15;8.73;;;5.63;;
15104;SDS011;7653;48.994;9.212;2023-07-02T04:38:41;9.17;;;5.73;;
15104;SDS011;7653;48.994;9.212;2023-07-02T04:41:06;10.07;;;6.07;;
15104;SDS011;7653;48.994;9.212;2023-07-02T04:43:35;8.47;;;5.53;;
15104;SDS011;7653;48.994;9.212;2023-07-02T04:46:01;8.30;;;5.27;;
15104;SDS011;7653;48.994;9.212;2023-07-02T04:48:27;9.57;;;5.00;;
15104;SDS011;7653;48.994;9.212;2023-07-02T04:50:53;9.63;;;5.40;;
15104;SDS011;7653;48.994;9.212;2023-07-02T04:53:18;10.20;;;5.07;;
15104;SDS011;7653;48.994;9.212;2023-07-02T04:55:44;8.27;;;5.10;;
15104;SDS011;7653;48.994;9.212;2023-07-02T04:58:10;6.83;;;4.87;;
15104;SDS011;7653;48.994;9.212;2023-07-02T05:00:35;7.17;;;4.37;;
15104;SDS011;7653;48.994;9.212;2023-07-02T05:03:01;10.50;;;4.70;;
15104;SDS011;7653;48.994;9.212;2023-07-02T05:05:27;7.97;;;4.27;;
15104;SDS011;7653;48.994;9.212;2023-07-02T05:07:53;9.50;;;4.17;;
15104;SDS011;7653;48.994;9.212;2023-07-02T05:10:19;7.17;;;3.90;;
15104;SDS011;7653;48.994;9.212;2023-07-02T05:12:46;6.97;;;4.37;;
15104;SDS011;7653;48.994;9.212;2023-07-02T05:15:11;8.67;;;4.20;;
15104;SDS011;7653;48.994;9.212;2023-07-02T05:17:37;8.97;;;4.50;;
15104;SDS011;7653;48.994;9.212;2023-07-02T05:20:03;8.13;;;4.27;;
15104;SDS011;7653;48.994;9.212;2023-07-02T05:22:29;5.93;;;3.57;;
15104;SDS011;7653;48.994;9.212;2023-07-02T05:24:55;7.70;;;3.70;;
15104;SDS011;7653;48.994;9.212;2023-07-02T05:27:21;9.97;;;3.67;;
15104;SDS011;7653;48.994;9.212;2023-07-02T05:29:47;5.97;;;3.57;;
15104;SDS011;7653;48.994;9.212;2023-07-02T05:32:12;8.47;;;3.53;;
15104;SDS011;7653;48.994;9.212;2023-07-02T05:34:38;6.10;;;3.37;;
15104;SDS011;7653;48.994;9.212;2023-07-02T05:37:04;5.57;;;2.83;;
15104;SDS011;7653;48.994;9.212;2023-07-02T05:39:30;5.93;;;3.07;;
15104;SDS011;7653;48.994;9.212;2023-07-02T05:41:56;4.77;;;3.40;;
15104;SDS011;7653;48.994;9.212;2023-07-02T05:44:22;8.47;;;4.07;;
15104;SDS011;7653;48.994;9.212;2023-07-02T05:46:47;5.63;;;3.27;;
15104;SDS011;7653;48.994;9.212;2023-07-02T05:49:13;5.00;;;3.50;;
15104;SDS011;7653;48.994;9.212;2023-07-02T05:51:39;6.67;;;4.47;;
15104;SDS011;7653;48.994;9.212;2023-07-02T05:54:05;8.00;;;4.50;;
15104;SDS011;7653;48.994;9.212;2023-07-02T05:56:31;10.27;;;4.40;;
15104;SDS011;7653;48.994;9.212;2023-07-02T05:58:56;11.17;;;4.33;;
15104;SDS011;7653;48.994;9.212;2023-07-02T06:01:25;7.17;;;4.40;;
15104;SDS011;7653;48.994;9.212;2023-07-02T06:03:51;9.53;;;4.47;;
15104;SDS011;7653;48.994;9.212;2023-07-02T06:06:17;8.30;;;4.63;;
15104;SDS011;7653;48.994;9.212;2023-07-02T06:08:42;7.90;;;3.90;;
15104;SDS011;7653;48.994;9.212;2023-07-02T06:11:09;11.00;;;5.03;;
15104;SDS011;7653;48.994;9.212;2023-07-02T06:13:35;6.67;;;5.00;;
15104;SDS011;7653;48.994;9.212;2023-07-02T06:16:01;6.77;;;4.90;;
15104;SDS011;7653;48.994;9.212;2023-07-02T06:18:26;9.03;;;4.80;;
15104;SDS011;7653;48.994;9.212;2023-07-02T06:20:52;11.23;;;5.27;;
15104;SDS011;7653;48.994;9.212;2023-07-02T06:23:18;8.57;;;5.03;;
15104;SDS011;7653;48.994;9.212;2023-07-02T06:25:43;10.27;;;4.93;;
15104;SDS011;7653;48.994;9.212;2023-07-02T06:28:09;9.33;;;5.43;;
15104;SDS011;7653;48.994;9.212;2023-07-02T06:30:35;7.33;;;4.97;;
15104;SDS011;7653;48.994;9.212;2023-07-02T06:33:01;10.13;;;4.23;;
15104;SDS011;7653;48.994;9.212;2023-07-02T06:35:27;9.40;;;5.07;;
15104;SDS011;7653;48.994;9.212;2023-07-02T06:37:52;13.53;;;5.67;;
15104;SDS011;7653;48.994;9.212;2023-07-02T06:40:18;9.67;;;4.93;;
15104;SDS011;7653;48.994;9.212;2023-07-02T06:42:44;9.17;;;5.30;;
15104;SDS011;7653;48.994;9.212;2023-07-02T06:45:10;9.63;;;5.17;;
15104;SDS011;7653;48.994;9.212;2023-07-02T06:47:36;9.80;;;5.27;;
15104;SDS011;7653;48.994;9.212;2023-07-02T06:50:02;5.77;;;3.23;;
15104;SDS011;7653;48.994;9.212;2023-07-02T06:52:28;11.13;;;5.20;;
15104;SDS011;7653;48.994;9.212;2023-07-02T06:54:53;5.47;;;3.43;;
15104;SDS011;7653;48.994;9.212;2023-07-02T06:57:19;9.60;;;5.10;;
15104;SDS011;7653;48.994;9.212;2023-07-02T06:59:45;9.50;;;5.70;;
15104;SDS011;7653;48.994;9.212;2023-07-02T07:02:11;8.10;;;4.07;;
15104;SDS011;7653;48.994;9.212;2023-07-02T07:04:37;10.17;;;5.77;;
15104;SDS011;7653;48.994;9.212;2023-07-02T07:07:02;15.47;;;6.13;;
15104;SDS011;7653;48.994;9.212;2023-07-02T07:09:29;8.90;;;4.80;;
15104;SDS011;7653;48.994;9.212;2023-07-02T07:11:55;11.10;;;5.90;;
15104;SDS011;7653;48.994;9.212;2023-07-02T07:14:21;10.10;;;5.73;;
15104;SDS011;7653;48.994;9.212;2023-07-02T07:16:46;6.80;;;2.57;;
15104;SDS011;7653;48.994;9.212;2023-07-02T07:19:12;11.10;;;6.07;;
15104;SDS011;7653;48.994;9.212;2023-07-02T07:21:37;9.67;;;4.20;;
15104;SDS011;7653;48.994;9.212;2023-07-02T07:24:03;9.10;;;5.23;;
15104;SDS011;7653;48.994;9.212;2023-07-02T07:26:29;8.87;;;4.63;;
15104;SDS011;7653;48.994;9.212;2023-07-02T07:28:55;9.70;;;5.73;;
15104;SDS011;7653;48.994;9.212;2023-07-02T07:31:21;10.67;;;5.63;;
15104;SDS011;7653;48.994;9.212;2023-07-02T07:33:46;8.40;;;4.23;;
15104;SDS011;7653;48.994;9.212;2023-07-02T07:36:12;8.90;;;5.13;;
15104;SDS011;7653;48.994;9.212;2023-07-02T07:38:39;8.80;;;4.87;;
15104;SDS011;7653;48.994;9.212;2023-07-02T07:41:04;12.67;;;5.73;;
15104;SDS011;7653;48.994;9.212;2023-07-02T07:43:30;11.20;;;6.00;;
15104;SDS011;7653;48.994;9.212;2023-07-02T07:45:56;9.20;;;5.50;;
15104;SDS011;7653;48.994;9.212;2023-07-02T07:48:21;7.53;;;4.07;;
15104;SDS011;7653;48.994;9.212;2023-07-02T07:50:47;7.77;;;4.60;;
15104;SDS011;7653;48.994;9.212;2023-07-02T07:53:13;11.17;;;5.60;;
15104;SDS011;7653;48.994;9.212;2023-07-02T07:55:38;11.07;;;5.23;;
15104;SDS011;7653;48.994;9.212;2023-07-02T07:58:04;10.37;;;5.67;;
15104;SDS011;7653;48.994;9.212;2023-07-02T08:00:29;9.37;;;5.07;;
15104;SDS011;7653;48.994;9.212;2023-07-02T08:02:55;10.27;;;6.00;;
15104;SDS011;7653;48.994;9.212;2023-07-02T08:05:21;9.00;;;6.07;;
15104;SDS011;7653;48.994;9.212;2023-07-02T08:07:48;10.17;;;5.30;;
15104;SDS011;7653;48.994;9.212;2023-07-02T08:10:13;8.30;;;4.27;;
15104;SDS011;7653;48.994;9.212;2023-07-02T08:12:39;9.70;;;5.50;;
15104;SDS011;7653;48.994;9.212;2023-07-02T08:15:05;6.07;;;3.73;;
15104;SDS011;7653;48.994;9.212;2023-07-02T08:17:31;10.10;;;6.07;;
15104;SDS011;7653;48.994;9.212;2023-07-02T08:19:57;9.50;;;4.87;;
15104;SDS011;7653;48.994;9.212;2023-07-02T08:22:22;11.87;;;7.03;;
15104;SDS011;7653;48.994;9.212;2023-07-02T08:24:48;13.37;;;7.90;;
15104;SDS011;7653;48.994;9.212;2023-07-02T08:27:17;10.57;;;7.23;;
15104;SDS011;7653;48.994;9.212;2023-07-02T08:29:47;14.47;;;8.03;;
15104;SDS011;7653;48.994;9.212;2023-07-02T08:32:14;12.63;;;8.57;;
15104;SDS011;7653;48.994;9.212;2023-07-02T08:34:40;12.83;;;6.60;;
15104;SDS011;7653;48.994;9.212;2023-07-02T08:37:06;8.83;;;4.73;;
15104;SDS011;7653;48.994;9.212;2023-07-02T08:39:31;14.00;;;9.87;;
15104;SDS011;7653;48.994;9.212;2023-07-02T08:41:57;19.90;;;9.73;;
15104;SDS011;7653;48.994;9.212;2023-07-02T08:44:23;17.47;;;10.33;;
15104;SDS011;7653;48.994;9.212;2023-07-02T08:46:49;17.87;;;10.60;;
15104;SDS011;7653;48.994;9.212;2023-07-02T08:49:19;21.97;;;11.07;;
15104;SDS011;7653;48.994;9.212;2023-07-02T08:51:45;18.53;;;10.83;;
15104;SDS011;7653;48.994;9.212;2023-07-02T08:54:11;17.23;;;10.47;;
15104;SDS011;7653;48.994;9.212;2023-07-02T08:56:38;15.73;;;9.20;;
15104;SDS011;7653;48.994;9.212;2023-07-02T08:59:06;19.60;;;11.47;;
15104;SDS011;7653;48.994;9.212;2023-07-02T09:01:32;18.07;;;9.63;;
15104;SDS011;7653;48.994;9.212;2023-07-02T09:03:58;21.63;;;11.30;;
15104;SDS011;7653;48.994;9.212;2023-07-02T09:06:27;20.33;;;11.83;;
15104;SDS011;7653;48.994;9.212;2023-07-02T09:08:53;12.77;;;8.07;;
15104;SDS011;7653;48.994;9.212;2023-07-02T09:11:28;19.53;;;12.00;;
15104;SDS011;7653;48.994;9.212;2023-07-02T09:13:54;11.10;;;7.33;;
15104;SDS011;7653;48.994;9.212;2023-07-02T09:19:05;19.27;;;11.13;;
15104;SDS011;7653;48.994;9.212;2023-07-02T09:24:15;13.07;;;6.97;;
15104;SDS011;7653;48.994;9.212;2023-07-02T09:26:45;19.27;;;11.60;;
15104;SDS011;7653;48.994;9.212;2023-07-02T09:29:12;18.23;;;11.70;;
15104;SDS011;7653;48.994;9.212;2023-07-02T09:31:45;19.10;;;10.57;;
15104;SDS011;7653;48.994;9.212;2023-07-02T09:34:11;24.73;;;12.80;;
15104;SDS011;7653;48.994;9.212;2023-07-02T09:36:38;12.63;;;7.07;;
15104;SDS011;7653;48.994;9.212;2023-07-02T09:39:11;19.13;;;10.73;;
15104;SDS011;7653;48.994;9.212;2023-07-02T09:41:44;17.93;;;10.13;;
15104;SDS011;7653;48.994;9.212;2023-07-02T09:44:11;13.80;;;9.00;;
15104;SDS011;7653;48.994;9.212;2023-07-02T09:46:41;16.57;;;8.63;;
15104;SDS011;7653;48.994;9.212;2023-07-02T09:49:12;18.53;;;10.17;;
15104;SDS011;7653;48.994;9.212;2023-07-02T09:51:41;14.90;;;8.20;;
15104;SDS011;7653;48.994;9.212;2023-07-02T09:54:08;11.20;;;5.67;;
15104;SDS011;7653;48.994;9.212;2023-07-02T09:56:35;21.33;;;12.83;;
15104;SDS011;7653;48.994;9.212;2023-07-02T09:59:01;17.67;;;10.03;;
15104;SDS011;7653;48.994;9.212;2023-07-02T10:01:26;23.27;;;11.67;;
15104;SDS011;7653;48.994;9.212;2023-07-02T10:03:52;21.70;;;11.60;;
15104;SDS011;7653;48.994;9.212;2023-07-02T10:06:18;6.73;;;4.83;;
15104;SDS011;7653;48.994;9.212;2023-07-02T10:08:53;15.37;;;10.97;;
15104;SDS011;7653;48.994;9.212;2023-07-02T10:11:20;13.70;;;7.37;;
15104;SDS011;7653;48.994;9.212;2023-07-02T10:13:58;19.33;;;11.80;;
15104;SDS011;7653;48.994;9.212;2023-07-02T10:16:24;22.13;;;12.87;;
15104;SDS011;7653;48.994;9.212;2023-07-02T10:18:52;16.57;;;9.90;;
15104;SDS011;7653;48.994;9.212;2023-07-02T10:21:18;11.67;;;7.47;;
15104;SDS011;7653;48.994;9.212;2023-07-02T10:23:45;17.73;;;10.63;;
15104;SDS011;7653;48.994;9.212;2023-07-02T10:26:14;19.10;;;11.43;;
15104;SDS011;7653;48.994;9.212;2023-07-02T10:28:42;10.93;;;6.93;;
15104;SDS011;7653;48.994;9.212;2023-07-02T10:31:17;18.90;;;10.10;;
15104;SDS011;7653;48.994;9.212;2023-07-02T10:33:46;16.33;;;10.93;;
15104;SDS011;7653;48.994;9.212;2023-07-02T10:36:21;17.07;;;10.43;;
15104;SDS011;7653;48.994;9.212;2023-07-02T10:38:48;15.40;;;9.60;;
15104;SDS011;7653;48.994;9.212;2023-07-02T10:41:28;21.53;;;10.40;;
15104;SDS011;7653;48.994;9.212;2023-07-02T10:43:54;11.47;;;7.07;;
15104;SDS011;7653;48.994;9.212;2023-07-02T10:46:43;11.40;;;6.80;;
15104;SDS011;7653;48.994;9.212;2023-07-02T10:49:12;18.73;;;11.43;;
15104;SDS011;7653;48.994;9.212;2023-07-02T10:51:38;18.07;;;9.77;;
15104;SDS011;7653;48.994;9.212;2023-07-02T10:54:04;11.47;;;8.07;;
15104;SDS011;7653;48.994;9.212;2023-07-02T10:56:30;11.23;;;7.17;;
15104;SDS011;7653;48.994;9.212;2023-07-02T10:58:57;19.77;;;12.37;;
15104;SDS011;7653;48.994;9.212;2023-07-02T11:01:30;16.40;;;10.47;;
15104;SDS011;7653;48.994;9.212;2023-07-02T11:06:25;15.77;;;9.40;;
15104;SDS011;7653;48.994;9.212;2023-07-02T11:08:52;16.93;;;10.53;;
15104;SDS011;7653;48.994;9.212;2023-07-02T11:11:20;13.60;;;8.57;;
15104;SDS011;7653;48.994;9.212;2023-07-02T11:13:47;8.77;;;4.03;;
15104;SDS011;7653;48.994;9.212;2023-07-02T11:16:18;9.97;;;5.80;;
15104;SDS011;7653;48.994;9.212;2023-07-02T11:18:49;9.00;;;6.60;;
15104;SDS011;7653;48.994;9.212;2023-07-02T11:21:15;15.23;;;10.73;;
15104;SDS011;7653;48.994;9.212;2023-07-02T11:23:41;21.57;;;12.30;;
15104;SDS011;7653;48.994;9.212;2023-07-02T11:26:06;18.17;;;9.90;;
15104;SDS011;7653;48.994;9.212;2023-07-02T11:28:32;12.57;;;6.53;;
15104;SDS011;7653;48.994;9.212;2023-07-02T11:30:59;15.93;;;9.90;;
15104;SDS011;7653;48.994;9.212;2023-07-02T11:33:37;10.73;;;5.90;;
15104;SDS011;7653;48.994;9.212;2023-07-02T11:36:04;14.13;;;9.53;;
15104;SDS011;7653;48.994;9.212;2023-07-02T11:38:32;15.47;;;9.67;;
15104;SDS011;7653;48.994;9.212;2023-07-02T11:40:58;7.97;;;4.70;;
15104;SDS011;7653;48.994;9.212;2023-07-02T11:43:25;18.73;;;9.13;;
15104;SDS011;7653;48.994;9.212;2023-07-02T11:45:51;17.17;;;9.33;;
15104;SDS011;7653;48.994;9.212;2023-07-02T11:48:17;10.73;;;6.97;;
15104;SDS011;7653;48.994;9.212;2023-07-02T11:50:42;12.17;;;6.63;;
15104;SDS011;7653;48.994;9.212;2023-07-02T11:53:08;17.80;;;11.37;;
15104;SDS011;7653;48.994;9.212;2023-07-02T11:55:34;18.10;;;10.23;;
15104;SDS011;7653;48.994;9.212;2023-07-02T11:58:01;14.33;;;8.60;;
15104;SDS011;7653;48.994;9.212;2023-07-02T12:00:26;16.90;;;11.70;;
15104;SDS011;7653;48.994;9.212;2023-07-02T12:02:52;12.73;;;8.37;;
15104;SDS011;7653;48.994;9.212;2023-07-02T12:05:18;18.47;;;11.87;;
15104;SDS011;7653;48.994;9.212;2023-07-02T12:07:43;13.97;;;8.07;;
15104;SDS011;7653;48.994;9.212;2023-07-02T12:10:09;12.73;;;8.17;;
15104;SDS011;7653;48.994;9.212;2023-07-02T12:12:35;12.33;;;8.00;;
15104;SDS011;7653;48.994;9.212;2023-07-02T12:15:00;17.27;;;11.50;;
15104;SDS011;7653;48.994;9.212;2023-07-02T12:17:26;17.27;;;9.97;;
15104;SDS011;7653;48.994;9.212;2023-07-02T12:19:51;12.27;;;7.87;;
15104;SDS011;7653;48.994;9.212;2023-07-02T12:22:17;16.23;;;10.63;;
15104;SDS011;7653;48.994;9.212;2023-07-02T12:24:43;12.73;;;7.97;;
15104;SDS011;7653;48.994;9.212;2023-07-02T12:27:09;11.37;;;5.80;;
15104;SDS011;7653;48.994;9.212;2023-07-02T12:29:35;18.63;;;10.53;;
15104;SDS011;7653;48.994;9.212;2023-07-02T12:32:01;12.57;;;8.10;;
15104;SDS011;7653;48.994;9.212;2023-07-02T12:34:27;6.60;;;3.57;;
15104;SDS011;7653;48.994;9.212;2023-07-02T12:36:54;12.00;;;7.03;;
15104;SDS011;7653;48.994;9.212;2023-07-02T12:39:20;27.37;;;10.03;;
15104;SDS011;7653;48.994;9.212;2023-07-02T12:41:45;17.90;;;11.17;;
15104;SDS011;7653;48.994;9.212;2023-07-02T12:44:11;16.97;;;11.60;;
15104;SDS011;7653;48.994;9.212;2023-07-02T12:46:36;11.70;;;6.27;;
15104;SDS011;7653;48.994;9.212;2023-07-02T12:49:02;16.10;;;9.20;;
15104;SDS011;7653;48.994;9.212;2023-07-02T12:51:28;13.13;;;7.63;;
15104;SDS011;7653;48.994;9.212;2023-07-02T12:53:53;13.57;;;8.27;;
15104;SDS011;7653;48.994;9.212;2023-07-02T12:56:19;9.60;;;4.97;;
15104;SDS011;7653;48.994;9.212;2023-07-02T12:58:44;11.00;;;6.93;;
15104;SDS011;7653;48.994;9.212;2023-07-02T13:01:10;15.87;;;10.00;;
15104;SDS011;7653;48.994;9.212;2023-07-02T13:03:37;14.70;;;9.40;;
15104;SDS011;7653;48.994;9.212;2023-07-02T13:06:03;14.40;;;8.43;;
15104;SDS011;7653;48.994;9.212;2023-07-02T13:08:28;10.48;;;7.20;;
15104;SDS011;7653;48.994;9.212;2023-07-02T13:10:54;15.77;;;9.03;;
15104;SDS011;7653;48.994;9.212;2023-07-02T13:13:19;13.50;;;9.13;;
15104;SDS011;7653;48.994;9.212;2023-07-02T13:15:45;11.85;;;8.85;;
15104;SDS011;7653;48.994;9.212;2023-07-02T13:18:11;15.93;;;10.97;;
15104;SDS011;7653;48.994;9.212;2023-07-02T13:20:36;17.90;;;9.97;;
15104;SDS011;7653;48.994;9.212;2023-07-02T13:23:02;13.20;;;6.57;;
15104;SDS011;7653;48.994;9.212;2023-07-02T13:25:29;14.50;;;9.97;;
15104;SDS011;7653;48.994;9.212;2023-07-02T13:27:54;16.47;;;10.90;;
15104;SDS011;7653;48.994;9.212;2023-07-02T13:30:20;16.57;;;11.03;;
15104;SDS011;7653;48.994;9.212;2023-07-02T13:32:45;13.98;;;11.07;;
15104;SDS011;7653;48.994;9.212;2023-07-02T13:35:11;16.17;;;10.35;;
15104;SDS011;7653;48.994;9.212;2023-07-02T13:37:37;14.70;;;8.95;;
15104;SDS011;7653;48.994;9.212;2023-07-02T13:40:02;15.90;;;9.90;;
15104;SDS011;7653;48.994;9.212;2023-07-02T13:42:31;11.32;;;6.65;;
15104;SDS011;7653;48.994;9.212;2023-07-02T13:44:57;10.70;;;7.28;;
15104;SDS011;7653;48.994;9.212;2023-07-02T13:47:22;12.90;;;8.02;;
15104;SDS011;7653;48.994;9.212;2023-07-02T13:49:48;13.77;;;8.45;;
15104;SDS011;7653;48.994;9.212;2023-07-02T13:52:13;14.82;;;10.65;;
15104;SDS011;7653;48.994;9.212;2023-07-02T13:54:39;10.90;;;6.97;;
15104;SDS011;7653;48.994;9.212;2023-07-02T13:57:05;13.80;;;9.75;;
15104;SDS011;7653;48.994;9.212;2023-07-02T13:59:31;15.27;;;10.20;;
15104;SDS011;7653;48.994;9.212;2023-07-02T14:01:56;13.55;;;8.50;;
15104;SDS011;7653;48.994;9.212;2023-07-02T14:04:22;14.73;;;9.10;;
15104;SDS011;7653;48.994;9.212;2023-07-02T14:06:47;11.35;;;5.28;;
15104;SDS011;7653;48.994;9.212;2023-07-02T14:09:13;15.85;;;8.63;;
15104;SDS011;7653;48.994;9.212;2023-07-02T14:11:39;13.23;;;8.65;;
15104;SDS011;7653;48.994;9.212;2023-07-02T14:14:06;15.43;;;10.60;;
15104;SDS011;7653;48.994;9.212;2023-07-02T14:16:32;13.38;;;8.43;;
15104;SDS011;7653;48.994;9.212;2023-07-02T14:18:58;14.32;;;10.30;;
15104;SDS011;7653;48.994;9.212;2023-07-02T14:21:23;12.45;;;6.78;;
15104;SDS011;7653;48.994;9.212;2023-07-02T14:23:49;13.43;;;9.10;;
15104;SDS011;7653;48.994;9.212;2023-07-02T14:26:15;10.85;;;6.97;;
15104;SDS011;7653;48.994;9.212;2023-07-02T14:28:41;15.80;;;10.65;;
15104;SDS011;7653;48.994;9.212;2023-07-02T14:31:07;13.93;;;9.35;;
15104;SDS011;7653;48.994;9.212;2023-07-02T14:33:33;13.32;;;9.30;;
15104;SDS011;7653;48.994;9.212;2023-07-02T14:36:01;12.15;;;8.05;;
15104;SDS011;7653;48.994;9.212;2023-07-02T14:38:27;14.38;;;9.25;;
15104;SDS011;7653;48.994;9.212;2023-07-02T14:40:53;12.55;;;7.30;;
15104;SDS011;7653;48.994;9.212;2023-07-02T14:43:19;17.27;;;8.23;;
15104;SDS011;7653;48.994;9.212;2023-07-02T14:45:47;13.60;;;8.05;;
15104;SDS011;7653;48.994;9.212;2023-07-02T14:48:17;8.18;;;6.15;;
15104;SDS011;7653;48.994;9.212;2023-07-02T14:50:53;11.40;;;7.60;;
15104;SDS011;7653;48.994;9.212;2023-07-02T14:53:20;18.77;;;10.35;;
15104;SDS011;7653;48.994;9.212;2023-07-02T14:55:46;14.25;;;7.93;;
15104;SDS011;7653;48.994;9.212;2023-07-02T14:58:13;17.45;;;9.80;;